createdAt,value
2023-02-12T00:01:28.728Z,101153.19
2023-02-12T00:03:57.949Z,101162.25
2023-02-12T00:06:26.880Z,101153.06
2023-02-12T00:08:56.518Z,101164.19
2023-02-12T00:11:28.372Z,101153.69
2023-02-12T00:13:57.768Z,101153.59
2023-02-12T00:16:29.046Z,101149.81
2023-02-12T00:18:58.740Z,101146.91
2023-02-12T00:21:29.349Z,101155.28
2023-02-12T00:23:58.431Z,101142.56
2023-02-12T00:26:27.589Z,101156.97
2023-02-12T00:28:56.130Z,101158.22
2023-02-12T00:31:28.153Z,101151.25
2023-02-12T00:33:59.547Z,101172.87
2023-02-12T00:36:30.373Z,101167.09
2023-02-12T00:38:59.573Z,101152.00
2023-02-12T00:41:28.026Z,101153.50
2023-02-12T00:43:56.189Z,101146.50
2023-02-12T00:46:24.740Z,101139.09
2023-02-12T00:48:53.163Z,101153.13
2023-02-12T00:51:21.588Z,101144.12
2023-02-12T00:53:50.096Z,101148.44
2023-02-12T00:56:18.754Z,101143.00
2023-02-12T00:58:50.337Z,101144.47
2023-02-12T01:01:19.094Z,101139.75
2023-02-12T01:03:47.542Z,101135.22
2023-02-12T01:06:15.695Z,101136.97
2023-02-12T01:08:44.116Z,101137.88
2023-02-12T01:11:13.819Z,101128.53
2023-02-12T01:13:42.098Z,101128.47
2023-02-12T01:16:24.298Z,101125.69
2023-02-12T01:18:56.086Z,101119.06
2023-02-12T01:21:27.571Z,101104.66
2023-02-12T01:23:57.130Z,101099.75
2023-02-12T01:26:27.163Z,101124.63
2023-02-12T01:28:58.304Z,101119.66
2023-02-12T01:31:31.087Z,101130.59
2023-02-12T01:34:00.714Z,101125.06
2023-02-12T01:36:30.321Z,101123.00
2023-02-12T01:38:59.314Z,101130.53
2023-02-12T01:41:31.104Z,101137.41
2023-02-12T01:44:08.610Z,101128.59
2023-02-12T01:46:36.823Z,101121.03
2023-02-12T01:49:09.561Z,101136.00
2023-02-12T01:51:38.111Z,101140.66
2023-02-12T01:54:10.542Z,101129.09
2023-02-12T01:56:39.752Z,101131.13
2023-02-12T01:59:08.687Z,101119.75
2023-02-12T02:01:37.331Z,101125.16
2023-02-12T02:04:11.361Z,101124.53
2023-02-12T02:06:48.809Z,101120.12
2023-02-12T02:09:19.997Z,101126.06
2023-02-12T02:12:06.682Z,101108.31
2023-02-12T02:14:36.363Z,101114.00
2023-02-12T02:17:04.719Z,101119.16
2023-02-12T02:20:06.084Z,101110.19
2023-02-12T02:23:01.714Z,101107.13
2023-02-12T02:26:06.380Z,101107.50
2023-02-12T02:28:40.588Z,101113.19
2023-02-12T02:31:28.338Z,101107.87
2023-02-12T02:34:08.697Z,101110.34
2023-02-12T02:37:00.230Z,101110.81
2023-02-12T02:39:57.928Z,101113.19
2023-02-12T02:42:33.403Z,101103.97
2023-02-12T02:45:25.077Z,101120.00
2023-02-12T02:48:00.509Z,101105.56
2023-02-12T02:50:31.561Z,101115.53
2023-02-12T02:53:08.276Z,101121.66
2023-02-12T02:55:43.127Z,101130.91
2023-02-12T02:58:17.141Z,101116.72
2023-02-12T03:01:07.135Z,101114.16
2023-02-12T03:03:43.789Z,101131.06
2023-02-12T03:06:30.678Z,101116.75
2023-02-12T03:09:13.278Z,101145.41
2023-02-12T03:11:43.153Z,101133.66
2023-02-12T03:14:29.962Z,101144.78
2023-02-12T03:17:13.207Z,101129.19
2023-02-12T03:19:53.022Z,101153.13
2023-02-12T03:22:26.391Z,101153.56
2023-02-12T03:25:04.876Z,101158.47
2023-02-12T03:27:38.951Z,101161.84
2023-02-12T03:30:09.000Z,101163.06
2023-02-12T03:33:08.938Z,101178.00
2023-02-12T03:35:56.416Z,101185.00
2023-02-12T03:38:38.093Z,101184.91
2023-02-12T03:41:09.947Z,101182.41
2023-02-12T03:43:55.339Z,101173.22
2023-02-12T03:46:50.920Z,101171.72
2023-02-12T03:49:43.448Z,101181.81
2023-02-12T03:52:11.649Z,101183.47
2023-02-12T03:54:40.344Z,101198.19
2023-02-12T03:57:13.957Z,101188.94
2023-02-12T03:59:44.055Z,101187.72
2023-02-12T04:02:12.906Z,101195.00
2023-02-12T04:04:41.644Z,101203.59
2023-02-12T04:07:10.637Z,101206.16
2023-02-12T04:09:39.119Z,101213.59
2023-02-12T04:12:21.111Z,101224.13
2023-02-12T04:15:14.787Z,101234.84
2023-02-12T04:18:12.532Z,101249.94
2023-02-12T04:20:54.784Z,101255.91
2023-02-12T04:23:42.592Z,101264.34
2023-02-12T04:26:19.617Z,101259.19
2023-02-12T04:28:59.933Z,101268.56
2023-02-12T04:31:54.581Z,101267.19
2023-02-12T04:34:43.428Z,101258.41
2023-02-12T04:38:08.732Z,101262.91
2023-02-12T04:40:40.942Z,101274.91
2023-02-12T04:43:09.401Z,101282.50
2023-02-12T04:45:38.257Z,101292.00
2023-02-12T04:48:06.898Z,101303.28
2023-02-12T04:50:40.923Z,101289.72
2023-02-12T04:53:11.015Z,101293.28
2023-02-12T04:55:39.218Z,101304.19
2023-02-12T04:58:10.614Z,101309.22
2023-02-12T05:00:41.643Z,101301.81
2023-02-12T05:03:12.977Z,101316.13
2023-02-12T05:05:41.244Z,101318.69
2023-02-12T05:08:09.354Z,101318.84
2023-02-12T05:10:37.433Z,101326.25
2023-02-12T05:13:05.894Z,101327.22
2023-02-12T05:15:33.948Z,101343.09
2023-02-12T05:18:02.031Z,101317.19
2023-02-12T05:20:30.784Z,101327.34
2023-02-12T05:22:59.097Z,101333.91
2023-02-12T05:25:28.010Z,101347.38
2023-02-12T05:27:57.184Z,101345.47
2023-02-12T05:30:28.326Z,101354.16
2023-02-12T05:32:56.734Z,101347.12
2023-02-12T05:35:24.848Z,101345.19
2023-02-12T05:37:55.939Z,101355.44
2023-02-12T05:40:24.506Z,101367.03
2023-02-12T05:42:52.630Z,101368.19
2023-02-12T05:45:27.967Z,101372.28
2023-02-12T05:47:56.977Z,101362.59
2023-02-12T05:50:25.280Z,101370.62
2023-02-12T05:53:01.213Z,101380.16
2023-02-12T05:55:29.498Z,101381.03
2023-02-12T05:57:57.551Z,101367.06
2023-02-12T06:00:26.305Z,101381.50
2023-02-12T06:02:57.047Z,101391.88
2023-02-12T06:05:25.153Z,101384.91
2023-02-12T06:07:53.615Z,101400.13
2023-02-12T06:10:24.517Z,101406.06
2023-02-12T06:12:56.141Z,101404.50
2023-02-12T06:15:24.534Z,101411.47
2023-02-12T06:17:52.658Z,101419.50
2023-02-12T06:20:20.717Z,101433.75
2023-02-12T06:22:49.035Z,101433.72
2023-02-12T06:25:17.320Z,101431.31
2023-02-12T06:27:45.370Z,101430.66
2023-02-12T06:30:14.366Z,101448.81
2023-02-12T06:32:42.624Z,101450.81
2023-02-12T06:35:10.740Z,101468.34
2023-02-12T06:37:39.195Z,101461.84
2023-02-12T06:40:07.924Z,101460.63
2023-02-12T06:42:36.325Z,101460.63
2023-02-12T06:45:05.297Z,101474.37
2023-02-12T06:47:33.440Z,101470.38
2023-02-12T06:50:05.475Z,101470.41
2023-02-12T06:52:34.077Z,101485.00
2023-02-12T06:55:10.666Z,101483.16
2023-02-12T06:57:39.384Z,101484.66
2023-02-12T07:00:08.162Z,101489.53
2023-02-12T07:02:38.938Z,101490.03
2023-02-12T07:05:08.163Z,101496.09
2023-02-12T07:07:36.445Z,101491.19
2023-02-12T07:10:04.645Z,101501.13
2023-02-12T07:12:33.882Z,101509.00
2023-02-12T07:15:02.081Z,101509.09
2023-02-12T07:17:31.218Z,101497.63
2023-02-12T07:19:59.618Z,101522.66
2023-02-12T07:22:27.688Z,101523.38
2023-02-12T07:24:55.832Z,101527.63
2023-02-12T07:27:24.314Z,101521.69
2023-02-12T07:29:52.577Z,101537.47
2023-02-12T07:32:20.759Z,101519.56
2023-02-12T07:34:49.144Z,101530.53
2023-02-12T07:37:22.741Z,101523.84
2023-02-12T07:39:51.463Z,101522.84
2023-02-12T07:42:19.791Z,101522.97
2023-02-12T07:44:48.793Z,101528.06
2023-02-12T07:47:17.388Z,101540.28
2023-02-12T07:49:45.786Z,101527.00
2023-02-12T07:52:14.460Z,101535.03
2023-02-12T07:54:42.881Z,101536.13
2023-02-12T07:57:11.475Z,101547.19
2023-02-12T07:59:39.553Z,101533.88
2023-02-12T08:02:09.905Z,101545.34
2023-02-12T08:04:38.425Z,101550.31
2023-02-12T08:07:06.733Z,101557.81
2023-02-12T08:09:34.932Z,101553.41
2023-02-12T08:12:03.423Z,101560.94
2023-02-12T08:14:32.046Z,101568.63
2023-02-12T08:17:00.194Z,101564.19
2023-02-12T08:19:28.894Z,101575.53
2023-02-12T08:21:57.101Z,101578.41
2023-02-12T08:24:25.923Z,101571.72
2023-02-12T08:26:55.694Z,101565.63
2023-02-12T08:29:27.538Z,101574.91
2023-02-12T08:31:58.627Z,101581.84
2023-02-12T08:34:30.041Z,101586.13
2023-02-12T08:36:58.961Z,101589.19
2023-02-12T08:39:29.533Z,101582.81
2023-02-12T08:41:59.972Z,101583.63
2023-02-12T08:44:29.264Z,101594.47
2023-02-12T08:46:57.480Z,101585.91
2023-02-12T08:49:29.484Z,101589.72
2023-02-12T08:51:59.861Z,101597.41
2023-02-12T08:54:29.599Z,101602.56
2023-02-12T08:57:00.633Z,101606.78
2023-02-12T08:59:29.080Z,101610.16
2023-02-12T09:01:57.713Z,101615.12
2023-02-12T09:04:28.187Z,101605.50
2023-02-12T09:06:56.632Z,101609.44
2023-02-12T09:09:25.142Z,101613.37
2023-02-12T09:11:53.698Z,101616.03
2023-02-12T09:14:25.273Z,101616.81
2023-02-12T09:16:54.525Z,101619.87
2023-02-12T09:19:23.422Z,101628.09
2023-02-12T09:21:56.960Z,101637.69
2023-02-12T09:24:27.655Z,101629.53
2023-02-12T09:26:56.622Z,101639.63
2023-02-12T09:29:25.029Z,101636.66
2023-02-12T09:31:54.045Z,101643.28
2023-02-12T09:34:22.219Z,101645.97
2023-02-12T09:36:50.282Z,101640.25
2023-02-12T09:39:19.126Z,101642.22
2023-02-12T09:41:53.033Z,101639.38
2023-02-12T09:44:36.169Z,101652.19
2023-02-12T09:47:19.197Z,101651.69
2023-02-12T09:50:22.735Z,101657.81
2023-02-12T09:52:52.439Z,101659.44
2023-02-12T09:55:26.323Z,101654.69
2023-02-12T09:57:55.075Z,101654.94
2023-02-12T10:00:23.854Z,101653.87
2023-02-12T10:02:53.958Z,101646.81
2023-02-12T10:05:29.218Z,101657.63
2023-02-12T10:08:22.158Z,101655.97
2023-02-12T10:10:54.403Z,101658.97
2023-02-12T10:13:40.942Z,101661.38
2023-02-12T10:16:24.781Z,101668.56
2023-02-12T10:19:13.347Z,101666.97
2023-02-12T10:21:57.629Z,101675.25
2023-02-12T10:25:10.501Z,101679.16
2023-02-12T10:27:43.590Z,101686.12
2023-02-12T10:30:31.330Z,101676.56
2023-02-12T10:33:06.745Z,101690.47
2023-02-12T10:35:35.867Z,101691.34
2023-02-12T10:38:22.618Z,101702.50
2023-02-12T10:40:52.042Z,101684.41
2023-02-12T10:43:20.155Z,101691.09
2023-02-12T10:45:49.202Z,101693.84
2023-02-12T10:48:22.236Z,101684.75
2023-02-12T10:51:08.960Z,101683.19
2023-02-12T10:53:40.655Z,101683.25
2023-02-12T10:56:17.566Z,101685.41
2023-02-12T10:59:00.411Z,101684.56
2023-02-12T11:01:31.045Z,101688.44
2023-02-12T11:04:18.909Z,101686.69
2023-02-12T11:07:07.411Z,101687.00
2023-02-12T11:09:45.646Z,101693.56
2023-02-12T11:12:49.437Z,101696.69
2023-02-12T11:15:22.107Z,101700.22
2023-02-12T11:17:58.910Z,101701.44
2023-02-12T11:20:57.922Z,101694.69
2023-02-12T11:23:32.095Z,101687.53
2023-02-12T11:26:18.848Z,101687.72
2023-02-12T11:29:00.520Z,101702.00
2023-02-12T11:31:35.311Z,101699.06
2023-02-12T11:34:13.026Z,101698.06
2023-02-12T11:36:44.758Z,101701.78
2023-02-12T11:39:21.880Z,101699.34
2023-02-12T11:42:15.360Z,101692.16
2023-02-12T11:44:51.229Z,101693.94
2023-02-12T11:47:31.770Z,101694.22
2023-02-12T11:50:04.156Z,101699.53
2023-02-12T11:52:38.471Z,101696.75
2023-02-12T11:55:29.693Z,101691.37
2023-02-12T11:58:13.871Z,101689.06
2023-02-12T12:00:47.208Z,101684.94
2023-02-12T12:03:24.322Z,101684.03
2023-02-12T12:05:57.651Z,101680.22
2023-02-12T12:08:34.162Z,101686.81
2023-02-12T12:11:11.626Z,101692.09
2023-02-12T12:14:13.655Z,101695.94
2023-02-12T12:17:13.010Z,101683.34
2023-02-12T12:20:02.536Z,101680.81
2023-02-12T12:22:40.010Z,101679.84
2023-02-12T12:25:25.207Z,101685.88
2023-02-12T12:28:08.543Z,101676.22
2023-02-12T12:30:39.623Z,101671.44
2023-02-12T12:33:17.961Z,101669.47
2023-02-12T12:36:04.987Z,101666.63
2023-02-12T12:38:44.749Z,101662.12
2023-02-12T12:41:51.087Z,101656.03
2023-02-12T12:44:32.408Z,101671.38
2023-02-12T12:47:03.789Z,101662.72
2023-02-12T12:49:37.915Z,101669.22
2023-02-12T12:52:43.662Z,101670.03
2023-02-12T12:55:24.259Z,101665.09
2023-02-12T12:58:19.388Z,101664.31
2023-02-12T13:01:10.416Z,101668.91
2023-02-12T13:04:16.685Z,101665.50
2023-02-12T13:07:09.761Z,101664.84
2023-02-12T13:10:08.811Z,101669.59
2023-02-12T13:12:54.282Z,101661.16
2023-02-12T13:15:39.199Z,101659.12
2023-02-12T13:18:26.615Z,101665.44
2023-02-12T13:21:14.063Z,101663.75
2023-02-12T13:23:52.317Z,101654.37
2023-02-12T13:26:30.510Z,101667.87
2023-02-12T13:29:12.273Z,101665.19
2023-02-12T13:31:51.242Z,101670.47
2023-02-12T13:34:22.974Z,101670.00
2023-02-12T13:36:51.484Z,101672.12
2023-02-12T13:39:35.493Z,101686.53
2023-02-12T13:42:18.342Z,101687.06
2023-02-12T13:44:51.341Z,101693.09
2023-02-12T13:47:48.207Z,101697.16
2023-02-12T13:50:38.792Z,101689.62
2023-02-12T13:53:29.278Z,101695.38
2023-02-12T13:56:27.610Z,101690.69
2023-02-12T13:59:00.268Z,101698.28
2023-02-12T14:01:38.559Z,101697.31
2023-02-12T14:04:34.224Z,101695.72
2023-02-12T14:07:08.061Z,101701.84
2023-02-12T14:10:06.808Z,101696.66
2023-02-12T14:12:41.407Z,101689.97
2023-02-12T14:15:31.174Z,101704.72
2023-02-12T14:18:02.677Z,101702.19
2023-02-12T14:20:34.020Z,101703.03
2023-02-12T14:23:28.507Z,101707.47
2023-02-12T14:26:10.009Z,101696.59
2023-02-12T14:28:56.397Z,101699.00
2023-02-12T14:31:28.118Z,101708.72
2023-02-12T14:34:05.313Z,101705.47
2023-02-12T14:36:38.872Z,101716.75
2023-02-12T14:39:19.556Z,101720.84
2023-02-12T14:41:57.371Z,101720.09
2023-02-12T14:44:29.539Z,101723.75
2023-02-12T14:47:02.688Z,101724.38
2023-02-12T14:49:37.081Z,101715.50
2023-02-12T14:52:17.762Z,101723.34
2023-02-12T14:54:51.076Z,101727.00
2023-02-12T14:57:39.770Z,101726.59
2023-02-12T15:00:17.505Z,101724.16
2023-02-12T15:02:53.861Z,101724.97
2023-02-12T15:05:26.296Z,101721.87
2023-02-12T15:08:14.001Z,101727.38
2023-02-12T15:10:52.827Z,101729.13
2023-02-12T15:13:24.304Z,101726.94
2023-02-12T15:16:02.594Z,101733.28
2023-02-12T15:18:40.950Z,101723.91
2023-02-12T15:21:31.767Z,101725.63
2023-02-12T15:24:09.325Z,101723.75
2023-02-12T15:26:42.722Z,101731.16
2023-02-12T15:29:37.442Z,101722.00
2023-02-12T15:32:08.327Z,101726.94
2023-02-12T15:34:40.134Z,101722.31
2023-02-12T15:37:10.036Z,101719.88
2023-02-12T15:39:44.665Z,101726.88
2023-02-12T15:42:33.803Z,101729.09
2023-02-12T15:45:14.253Z,101732.06
2023-02-12T15:47:45.888Z,101748.63
2023-02-12T15:50:18.327Z,101744.78
2023-02-12T15:52:49.936Z,101746.31
2023-02-12T15:55:25.795Z,101742.16
2023-02-12T15:58:00.210Z,101747.25
2023-02-12T16:00:29.113Z,101747.19
2023-02-12T16:02:57.769Z,101749.09
2023-02-12T16:05:27.502Z,101763.19
2023-02-12T16:07:56.331Z,101774.72
2023-02-12T16:10:27.203Z,101765.78
2023-02-12T16:12:55.919Z,101769.22
2023-02-12T16:15:28.700Z,101771.22
2023-02-12T16:17:59.992Z,101772.47
2023-02-12T16:20:30.713Z,101778.63
2023-02-12T16:22:59.869Z,101782.03
2023-02-12T16:25:31.891Z,101789.28
2023-02-12T16:28:06.481Z,101783.44
2023-02-12T16:30:39.050Z,101781.28
2023-02-12T16:33:34.222Z,101796.28
2023-02-12T16:36:06.322Z,101795.97
2023-02-12T16:38:39.542Z,101789.13
2023-02-12T16:41:19.801Z,101797.84
2023-02-12T16:44:12.325Z,101793.41
2023-02-12T16:46:50.609Z,101810.94
2023-02-12T16:49:21.922Z,101822.25
2023-02-12T16:51:52.592Z,101816.87
2023-02-12T16:54:26.835Z,101826.13
2023-02-12T16:56:56.056Z,101827.16
2023-02-12T16:59:24.736Z,101831.44
2023-02-12T17:02:04.138Z,101827.00
2023-02-12T17:04:32.790Z,101835.62
2023-02-12T17:07:01.198Z,101827.81
2023-02-12T17:09:33.300Z,101833.16
2023-02-12T17:12:02.671Z,101833.44
2023-02-12T17:14:31.195Z,101825.66
2023-02-12T17:16:59.817Z,101834.63
2023-02-12T17:19:28.828Z,101836.59
2023-02-12T17:21:57.756Z,101830.50
2023-02-12T17:24:29.239Z,101831.72
2023-02-12T17:26:58.043Z,101830.72
2023-02-12T17:29:27.286Z,101828.84
2023-02-12T17:31:58.841Z,101835.44
2023-02-12T17:34:28.784Z,101830.56
2023-02-12T17:36:59.951Z,101835.59
2023-02-12T17:39:29.983Z,101835.81
2023-02-12T17:42:00.405Z,101843.69
2023-02-12T17:44:28.922Z,101845.25
2023-02-12T17:46:59.050Z,101851.97
2023-02-12T17:49:27.636Z,101851.94
2023-02-12T17:51:56.647Z,101849.09
2023-02-12T17:54:25.069Z,101854.78
2023-02-12T17:56:53.438Z,101854.41
2023-02-12T17:59:22.231Z,101860.44
2023-02-12T18:01:50.674Z,101850.00
2023-02-12T18:04:19.615Z,101850.25
2023-02-12T18:06:47.903Z,101859.41
2023-02-12T18:09:16.375Z,101858.66
2023-02-12T18:11:45.836Z,101863.75
2023-02-12T18:14:14.216Z,101872.91
2023-02-12T18:16:42.751Z,101866.97
2023-02-12T18:19:12.160Z,101869.22
2023-02-12T18:21:41.051Z,101874.59
2023-02-12T18:24:09.346Z,101869.75
2023-02-12T18:26:38.371Z,101868.84
2023-02-12T18:29:06.474Z,101869.34
2023-02-12T18:31:35.289Z,101868.47
2023-02-12T18:34:05.958Z,101874.47
2023-02-12T18:36:34.847Z,101880.34
2023-02-12T18:39:04.169Z,101881.41
2023-02-12T18:41:33.484Z,101877.53
2023-02-12T18:44:01.898Z,101871.44
2023-02-12T18:46:31.763Z,101880.00
2023-02-12T18:49:01.152Z,101884.78
2023-02-12T18:51:31.828Z,101883.63
2023-02-12T18:54:04.853Z,101892.25
2023-02-12T18:56:40.883Z,101889.34
2023-02-12T18:59:13.931Z,101896.59
2023-02-12T19:01:43.173Z,101879.69
2023-02-12T19:04:13.528Z,101894.41
2023-02-12T19:06:46.657Z,101892.31
2023-02-12T19:09:17.323Z,101889.12
2023-02-12T19:11:47.466Z,101896.94
2023-02-12T19:14:18.476Z,101889.28
2023-02-12T19:16:47.895Z,101884.53
2023-02-12T19:19:17.679Z,101884.69
2023-02-12T19:21:46.798Z,101892.59
2023-02-12T19:24:16.483Z,101885.56
2023-02-12T19:26:45.540Z,101896.59
2023-02-12T19:29:14.263Z,101911.31
2023-02-12T19:31:45.689Z,101904.47
2023-02-12T19:34:19.697Z,101908.25
2023-02-12T19:36:49.850Z,101912.94
2023-02-12T19:39:22.222Z,101912.47
2023-02-12T19:41:51.891Z,101925.78
2023-02-12T19:44:23.594Z,101924.38
2023-02-12T19:46:53.052Z,101925.75
2023-02-12T19:49:23.575Z,101930.09
2023-02-12T19:51:53.043Z,101924.09
2023-02-12T19:54:23.424Z,101934.91
2023-02-12T19:56:53.376Z,101925.81
2023-02-12T19:59:24.464Z,101933.31
2023-02-12T20:01:53.342Z,101938.09
2023-02-12T20:04:25.461Z,101941.72
2023-02-12T20:06:54.080Z,101946.16
2023-02-12T20:09:23.371Z,101948.47
2023-02-12T20:11:53.867Z,101950.59
2023-02-12T20:14:22.814Z,101953.34
2023-02-12T20:16:56.196Z,101953.09
2023-02-12T20:19:30.102Z,101958.78
2023-02-12T20:22:01.726Z,101953.72
2023-02-12T20:24:32.224Z,101956.25
2023-02-12T20:27:02.298Z,101946.78
2023-02-12T20:29:31.048Z,101958.66
2023-02-12T20:31:59.731Z,101962.28
2023-02-12T20:34:28.994Z,101977.91
2023-02-12T20:36:58.409Z,101975.22
2023-02-12T20:39:27.054Z,101980.31
2023-02-12T20:41:55.742Z,101982.25
2023-02-12T20:44:24.365Z,101995.19
2023-02-12T20:46:56.500Z,101984.16
2023-02-12T20:49:26.699Z,101991.81
2023-02-12T20:51:55.402Z,101994.88
2023-02-12T20:54:23.915Z,101996.06
2023-02-12T20:56:53.918Z,101998.41
2023-02-12T20:59:22.103Z,101998.28
2023-02-12T21:01:51.013Z,101995.84
2023-02-12T21:04:20.310Z,101988.53
2023-02-12T21:06:48.890Z,102013.59
2023-02-12T21:09:18.813Z,102012.56
2023-02-12T21:11:48.679Z,102003.75
2023-02-12T21:14:22.494Z,102003.06
2023-02-12T21:16:54.321Z,102003.50
2023-02-12T21:19:23.931Z,101996.53
2023-02-12T21:21:53.198Z,101998.81
2023-02-12T21:24:24.178Z,101994.28
2023-02-12T21:26:54.016Z,101988.72
2023-02-12T21:29:23.485Z,101990.59
2023-02-12T21:31:52.728Z,101998.38
2023-02-12T21:34:23.258Z,101996.59
2023-02-12T21:36:54.919Z,102004.22
2023-02-12T21:39:27.523Z,102006.56
2023-02-12T21:42:00.269Z,102019.31
2023-02-12T21:44:31.454Z,102010.81
2023-02-12T21:46:59.819Z,102026.25
2023-02-12T21:49:28.707Z,102029.63
2023-02-12T21:52:02.032Z,102027.09
2023-02-12T21:54:31.701Z,102027.41
2023-02-12T21:57:00.519Z,102040.84
2023-02-12T21:59:31.910Z,102041.91
2023-02-12T22:02:01.988Z,102042.31
2023-02-12T22:04:30.430Z,102046.56
2023-02-12T22:07:02.981Z,102044.81
2023-02-12T22:09:32.044Z,102048.94
2023-02-12T22:12:00.443Z,102049.94
2023-02-12T22:14:28.670Z,102048.38
2023-02-12T22:16:57.389Z,102049.19
2023-02-12T22:19:25.742Z,102052.69
2023-02-12T22:21:53.938Z,102055.25
2023-02-12T22:24:22.456Z,102050.16
2023-02-12T22:26:54.014Z,102046.63
2023-02-12T22:29:23.657Z,102050.22
2023-02-12T22:31:52.399Z,102063.81
2023-02-12T22:34:20.596Z,102064.97
2023-02-12T22:36:49.055Z,102058.22
2023-02-12T22:39:17.862Z,102046.81
2023-02-12T22:41:46.362Z,102068.41
2023-02-12T22:44:16.643Z,102074.94
2023-02-12T22:46:48.715Z,102063.25
2023-02-12T22:49:17.962Z,102055.47
2023-02-12T22:51:46.760Z,102061.63
2023-02-12T22:54:17.179Z,102062.66
2023-02-12T22:56:49.297Z,102061.63
2023-02-12T22:59:17.757Z,102072.62
2023-02-12T23:01:46.250Z,102074.44
2023-02-12T23:04:16.949Z,102075.31
2023-02-12T23:06:46.991Z,102079.84
2023-02-12T23:09:19.317Z,102073.81
2023-02-12T23:11:48.366Z,102077.84
2023-02-12T23:14:17.325Z,102078.28
2023-02-12T23:16:45.996Z,102078.13
2023-02-12T23:19:14.951Z,102082.66
2023-02-12T23:21:43.500Z,102075.75
2023-02-12T23:24:15.131Z,102075.81
2023-02-12T23:26:43.968Z,102079.28
2023-02-12T23:29:12.387Z,102073.97
2023-02-12T23:31:41.187Z,102084.16
2023-02-12T23:34:09.874Z,102081.53
2023-02-12T23:36:37.993Z,102073.16
2023-02-12T23:39:06.467Z,102075.94
2023-02-12T23:41:35.014Z,102068.88
2023-02-12T23:44:03.888Z,102072.25
2023-02-12T23:46:32.323Z,102074.84
2023-02-12T23:49:00.900Z,102073.87
2023-02-12T23:51:29.136Z,102056.81
2023-02-12T23:53:57.994Z,102070.13
2023-02-12T23:56:26.841Z,102061.56
2023-02-12T23:58:57.359Z,102055.66
